sensor_id;sensor_type;location;lat;lon;timestamp;P1;durP1;ratioP1;P2;durP2;ratioP2
40433;SDS011;26146;51.114;5.654;2023-07-24T00:02:14;6.25;;;2.50;;
40433;SDS011;26146;51.114;5.654;2023-07-24T00:06:15;6.47;;;2.72;;
40433;SDS011;26146;51.114;5.654;2023-07-24T00:10:16;7.32;;;2.75;;
40433;SDS011;26146;51.114;5.654;2023-07-24T00:14:17;7.93;;;3.00;;
40433;SDS011;26146;51.114;5.654;2023-07-24T00:18:18;7.03;;;2.90;;
40433;SDS011;26146;51.114;5.654;2023-07-24T00:22:19;7.80;;;3.33;;
40433;SDS011;26146;51.114;5.654;2023-07-24T00:26:20;8.07;;;3.15;;
40433;SDS011;26146;51.114;5.654;2023-07-24T00:30:21;8.48;;;3.38;;
40433;SDS011;26146;51.114;5.654;2023-07-24T00:34:22;8.48;;;3.33;;
40433;SDS011;26146;51.114;5.654;2023-07-24T00:38:23;9.15;;;3.50;;
40433;SDS011;26146;51.114;5.654;2023-07-24T00:42:24;9.60;;;3.60;;
40433;SDS011;26146;51.114;5.654;2023-07-24T00:46:25;9.75;;;3.70;;
40433;SDS011;26146;51.114;5.654;2023-07-24T00:50:26;10.20;;;3.75;;
40433;SDS011;26146;51.114;5.654;2023-07-24T00:54:29;9.95;;;3.78;;
40433;SDS011;26146;51.114;5.654;2023-07-24T00:58:33;9.43;;;3.50;;
40433;SDS011;26146;51.114;5.654;2023-07-24T01:02:37;8.63;;;3.80;;
40433;SDS011;26146;51.114;5.654;2023-07-24T01:06:39;9.20;;;3.78;;
40433;SDS011;26146;51.114;5.654;2023-07-24T01:10:40;8.35;;;3.70;;
40433;SDS011;26146;51.114;5.654;2023-07-24T01:14:44;9.75;;;3.70;;
40433;SDS011;26146;51.114;5.654;2023-07-24T01:18:48;10.65;;;3.60;;
40433;SDS011;26146;51.114;5.654;2023-07-24T01:27:06;11.00;;;3.95;;
40433;SDS011;26146;51.114;5.654;2023-07-24T01:31:07;10.65;;;3.58;;
40433;SDS011;26146;51.114;5.654;2023-07-24T01:35:09;10.20;;;3.88;;
40433;SDS011;26146;51.114;5.654;2023-07-24T01:39:10;10.07;;;3.67;;
40433;SDS011;26146;51.114;5.654;2023-07-24T01:43:11;11.65;;;3.70;;
40433;SDS011;26146;51.114;5.654;2023-07-24T01:47:12;9.40;;;3.42;;
40433;SDS011;26146;51.114;5.654;2023-07-24T01:51:13;7.68;;;3.40;;
40433;SDS011;26146;51.114;5.654;2023-07-24T01:55:14;8.23;;;3.63;;
40433;SDS011;26146;51.114;5.654;2023-07-24T01:59:15;10.05;;;3.70;;
40433;SDS011;26146;51.114;5.654;2023-07-24T02:03:16;8.85;;;3.72;;
40433;SDS011;26146;51.114;5.654;2023-07-24T02:07:17;10.48;;;3.42;;
40433;SDS011;26146;51.114;5.654;2023-07-24T02:11:18;8.95;;;3.35;;
40433;SDS011;26146;51.114;5.654;2023-07-24T02:15:19;12.65;;;3.80;;
40433;SDS011;26146;51.114;5.654;2023-07-24T02:19:20;11.02;;;4.03;;
40433;SDS011;26146;51.114;5.654;2023-07-24T02:23:21;10.68;;;3.80;;
40433;SDS011;26146;51.114;5.654;2023-07-24T02:27:28;11.85;;;3.75;;
40433;SDS011;26146;51.114;5.654;2023-07-24T02:31:34;13.05;;;3.45;;
40433;SDS011;26146;51.114;5.654;2023-07-24T02:35:41;12.23;;;3.75;;
40433;SDS011;26146;51.114;5.654;2023-07-24T02:39:43;10.73;;;3.45;;
40433;SDS011;26146;51.114;5.654;2023-07-24T02:43:44;10.23;;;3.40;;
40433;SDS011;26146;51.114;5.654;2023-07-24T02:47:44;10.52;;;3.47;;
40433;SDS011;26146;51.114;5.654;2023-07-24T02:51:45;9.48;;;3.80;;
40433;SDS011;26146;51.114;5.654;2023-07-24T02:55:46;11.40;;;3.70;;
40433;SDS011;26146;51.114;5.654;2023-07-24T02:59:47;10.65;;;3.60;;
40433;SDS011;26146;51.114;5.654;2023-07-24T03:03:48;9.52;;;3.55;;
40433;SDS011;26146;51.114;5.654;2023-07-24T03:07:52;9.93;;;3.80;;
40433;SDS011;26146;51.114;5.654;2023-07-24T03:11:53;11.50;;;3.63;;
40433;SDS011;26146;51.114;5.654;2023-07-24T03:15:56;11.02;;;3.72;;
40433;SDS011;26146;51.114;5.654;2023-07-24T03:19:58;10.30;;;4.18;;
40433;SDS011;26146;51.114;5.654;2023-07-24T03:24:07;11.32;;;3.90;;
40433;SDS011;26146;51.114;5.654;2023-07-24T03:28:09;10.02;;;3.55;;
40433;SDS011;26146;51.114;5.654;2023-07-24T03:36:59;12.02;;;4.10;;
40433;SDS011;26146;51.114;5.654;2023-07-24T03:41:00;10.75;;;4.10;;
40433;SDS011;26146;51.114;5.654;2023-07-24T03:45:01;9.98;;;3.80;;
40433;SDS011;26146;51.114;5.654;2023-07-24T03:49:02;15.60;;;4.40;;
40433;SDS011;26146;51.114;5.654;2023-07-24T03:53:03;11.73;;;4.15;;
40433;SDS011;26146;51.114;5.654;2023-07-24T03:57:04;11.70;;;4.20;;
40433;SDS011;26146;51.114;5.654;2023-07-24T04:01:05;10.25;;;4.10;;
40433;SDS011;26146;51.114;5.654;2023-07-24T04:05:07;10.43;;;3.70;;
40433;SDS011;26146;51.114;5.654;2023-07-24T04:09:08;9.48;;;3.80;;
40433;SDS011;26146;51.114;5.654;2023-07-24T04:13:11;9.82;;;3.67;;
40433;SDS011;26146;51.114;5.654;2023-07-24T04:17:12;8.15;;;3.10;;
40433;SDS011;26146;51.114;5.654;2023-07-24T04:21:12;9.57;;;3.83;;
40433;SDS011;26146;51.114;5.654;2023-07-24T04:25:16;11.95;;;3.50;;
40433;SDS011;26146;51.114;5.654;2023-07-24T04:29:17;9.00;;;3.40;;
40433;SDS011;26146;51.114;5.654;2023-07-24T04:33:17;9.43;;;3.60;;
40433;SDS011;26146;51.114;5.654;2023-07-24T04:37:18;9.68;;;3.63;;
40433;SDS011;26146;51.114;5.654;2023-07-24T04:41:19;7.88;;;3.40;;
40433;SDS011;26146;51.114;5.654;2023-07-24T04:45:20;10.30;;;3.40;;
40433;SDS011;26146;51.114;5.654;2023-07-24T04:49:21;9.63;;;2.97;;
40433;SDS011;26146;51.114;5.654;2023-07-24T04:53:23;8.73;;;3.13;;
40433;SDS011;26146;51.114;5.654;2023-07-24T04:57:24;8.00;;;2.38;;
40433;SDS011;26146;51.114;5.654;2023-07-24T05:01:24;6.25;;;1.67;;
40433;SDS011;26146;51.114;5.654;2023-07-24T05:05:25;5.82;;;1.50;;
40433;SDS011;26146;51.114;5.654;2023-07-24T05:09:26;5.15;;;1.50;;
40433;SDS011;26146;51.114;5.654;2023-07-24T05:13:27;4.85;;;1.30;;
40433;SDS011;26146;51.114;5.654;2023-07-24T05:17:29;4.32;;;1.20;;
40433;SDS011;26146;51.114;5.654;2023-07-24T05:21:30;5.03;;;1.30;;
40433;SDS011;26146;51.114;5.654;2023-07-24T05:25:31;4.10;;;1.13;;
40433;SDS011;26146;51.114;5.654;2023-07-24T05:29:32;5.18;;;1.38;;
40433;SDS011;26146;51.114;5.654;2023-07-24T05:33:33;5.78;;;1.40;;
40433;SDS011;26146;51.114;5.654;2023-07-24T05:37:34;4.57;;;1.20;;
40433;SDS011;26146;51.114;5.654;2023-07-24T05:41:35;5.97;;;1.20;;
40433;SDS011;26146;51.114;5.654;2023-07-24T05:45:36;4.82;;;1.30;;
40433;SDS011;26146;51.114;5.654;2023-07-24T05:49:37;4.25;;;1.10;;
40433;SDS011;26146;51.114;5.654;2023-07-24T05:53:38;4.32;;;1.25;;
40433;SDS011;26146;51.114;5.654;2023-07-24T05:57:39;5.13;;;1.20;;
40433;SDS011;26146;51.114;5.654;2023-07-24T06:01:40;5.30;;;1.20;;
40433;SDS011;26146;51.114;5.654;2023-07-24T06:05:41;4.80;;;1.27;;
40433;SDS011;26146;51.114;5.654;2023-07-24T06:09:42;4.63;;;1.20;;
40433;SDS011;26146;51.114;5.654;2023-07-24T06:13:43;4.25;;;1.10;;
40433;SDS011;26146;51.114;5.654;2023-07-24T06:17:44;4.57;;;1.23;;
40433;SDS011;26146;51.114;5.654;2023-07-24T06:21:45;5.10;;;1.30;;
40433;SDS011;26146;51.114;5.654;2023-07-24T06:25:48;5.10;;;1.55;;
40433;SDS011;26146;51.114;5.654;2023-07-24T06:29:49;6.03;;;1.60;;
40433;SDS011;26146;51.114;5.654;2023-07-24T06:33:50;5.38;;;1.40;;
40433;SDS011;26146;51.114;5.654;2023-07-24T06:37:51;4.43;;;1.30;;
40433;SDS011;26146;51.114;5.654;2023-07-24T06:41:52;5.28;;;1.48;;
40433;SDS011;26146;51.114;5.654;2023-07-24T06:45:53;4.57;;;1.20;;
40433;SDS011;26146;51.114;5.654;2023-07-24T06:49:54;4.43;;;1.38;;
40433;SDS011;26146;51.114;5.654;2023-07-24T06:53:57;3.90;;;1.10;;
40433;SDS011;26146;51.114;5.654;2023-07-24T06:58:00;5.10;;;1.23;;
40433;SDS011;26146;51.114;5.654;2023-07-24T07:02:01;5.38;;;1.30;;
40433;SDS011;26146;51.114;5.654;2023-07-24T07:06:05;4.68;;;1.10;;
40433;SDS011;26146;51.114;5.654;2023-07-24T07:10:07;4.85;;;1.30;;
40433;SDS011;26146;51.114;5.654;2023-07-24T07:14:08;5.93;;;1.30;;
40433;SDS011;26146;51.114;5.654;2023-07-24T07:18:09;5.60;;;1.45;;
40433;SDS011;26146;51.114;5.654;2023-07-24T07:22:10;3.97;;;1.20;;
40433;SDS011;26146;51.114;5.654;2023-07-24T07:26:11;5.80;;;1.33;;
40433;SDS011;26146;51.114;5.654;2023-07-24T07:30:14;5.18;;;1.20;;
40433;SDS011;26146;51.114;5.654;2023-07-24T07:34:16;4.65;;;1.40;;
40433;SDS011;26146;51.114;5.654;2023-07-24T07:38:17;5.40;;;1.25;;
40433;SDS011;26146;51.114;5.654;2023-07-24T07:42:22;5.03;;;1.10;;
40433;SDS011;26146;51.114;5.654;2023-07-24T07:46:23;5.82;;;1.30;;
40433;SDS011;26146;51.114;5.654;2023-07-24T07:50:24;3.65;;;1.08;;
40433;SDS011;26146;51.114;5.654;2023-07-24T07:54:25;4.82;;;1.20;;
40433;SDS011;26146;51.114;5.654;2023-07-24T07:58:26;4.32;;;1.20;;
40433;SDS011;26146;51.114;5.654;2023-07-24T08:02:27;4.90;;;1.50;;
40433;SDS011;26146;51.114;5.654;2023-07-24T08:06:28;4.30;;;1.13;;
40433;SDS011;26146;51.114;5.654;2023-07-24T08:10:31;5.18;;;1.30;;
40433;SDS011;26146;51.114;5.654;2023-07-24T08:14:32;4.10;;;1.15;;
40433;SDS011;26146;51.114;5.654;2023-07-24T08:18:33;4.03;;;1.10;;
40433;SDS011;26146;51.114;5.654;2023-07-24T08:22:34;4.40;;;1.15;;
40433;SDS011;26146;51.114;5.654;2023-07-24T08:26:40;4.75;;;1.10;;
40433;SDS011;26146;51.114;5.654;2023-07-24T08:30:41;4.60;;;1.20;;
40433;SDS011;26146;51.114;5.654;2023-07-24T08:34:42;3.72;;;1.00;;
40433;SDS011;26146;51.114;5.654;2023-07-24T08:38:43;4.28;;;1.17;;
40433;SDS011;26146;51.114;5.654;2023-07-24T08:42:44;5.03;;;1.10;;
40433;SDS011;26146;51.114;5.654;2023-07-24T08:46:47;3.90;;;1.10;;
40433;SDS011;26146;51.114;5.654;2023-07-24T08:50:50;4.35;;;1.20;;
40433;SDS011;26146;51.114;5.654;2023-07-24T08:54:52;3.85;;;0.90;;
40433;SDS011;26146;51.114;5.654;2023-07-24T08:58:55;2.90;;;0.80;;
40433;SDS011;26146;51.114;5.654;2023-07-24T09:02:56;3.97;;;0.80;;
40433;SDS011;26146;51.114;5.654;2023-07-24T09:06:57;3.63;;;0.90;;
40433;SDS011;26146;51.114;5.654;2023-07-24T09:11:01;3.50;;;0.90;;
40433;SDS011;26146;51.114;5.654;2023-07-24T09:15:03;3.70;;;0.90;;
40433;SDS011;26146;51.114;5.654;2023-07-24T09:19:05;4.18;;;1.27;;
40433;SDS011;26146;51.114;5.654;2023-07-24T09:23:25;5.18;;;1.00;;
40433;SDS011;26146;51.114;5.654;2023-07-24T09:27:30;3.45;;;1.00;;
40433;SDS011;26146;51.114;5.654;2023-07-24T09:31:35;5.47;;;0.90;;
40433;SDS011;26146;51.114;5.654;2023-07-24T09:35:37;4.82;;;0.98;;
40433;SDS011;26146;51.114;5.654;2023-07-24T09:39:38;3.40;;;0.98;;
40433;SDS011;26146;51.114;5.654;2023-07-24T09:43:41;3.85;;;0.93;;
40433;SDS011;26146;51.114;5.654;2023-07-24T09:47:42;3.47;;;0.98;;
40433;SDS011;26146;51.114;5.654;2023-07-24T09:51:43;4.38;;;0.98;;
40433;SDS011;26146;51.114;5.654;2023-07-24T09:55:57;5.03;;;1.10;;
40433;SDS011;26146;51.114;5.654;2023-07-24T09:59:59;4.07;;;1.00;;
40433;SDS011;26146;51.114;5.654;2023-07-24T10:04:01;4.40;;;1.35;;
40433;SDS011;26146;51.114;5.654;2023-07-24T10:08:04;4.45;;;1.40;;
40433;SDS011;26146;51.114;5.654;2023-07-24T10:12:06;5.38;;;1.35;;
40433;SDS011;26146;51.114;5.654;2023-07-24T10:16:08;4.30;;;1.23;;
40433;SDS011;26146;51.114;5.654;2023-07-24T10:20:10;5.75;;;1.50;;
40433;SDS011;26146;51.114;5.654;2023-07-24T10:24:11;4.32;;;1.42;;
40433;SDS011;26146;51.114;5.654;2023-07-24T10:28:13;5.40;;;1.60;;
40433;SDS011;26146;51.114;5.654;2023-07-24T10:32:16;7.22;;;1.95;;
40433;SDS011;26146;51.114;5.654;2023-07-24T10:36:19;6.93;;;2.10;;
40433;SDS011;26146;51.114;5.654;2023-07-24T10:40:22;6.10;;;1.90;;
40433;SDS011;26146;51.114;5.654;2023-07-24T10:44:30;5.50;;;1.60;;
40433;SDS011;26146;51.114;5.654;2023-07-24T10:48:32;5.00;;;1.40;;
40433;SDS011;26146;51.114;5.654;2023-07-24T10:52:33;5.20;;;1.50;;
40433;SDS011;26146;51.114;5.654;2023-07-24T10:56:36;5.25;;;1.45;;
40433;SDS011;26146;51.114;5.654;2023-07-24T11:00:38;3.67;;;0.98;;
40433;SDS011;26146;51.114;5.654;2023-07-24T11:04:40;5.30;;;1.05;;
40433;SDS011;26146;51.114;5.654;2023-07-24T11:08:41;4.60;;;1.38;;
40433;SDS011;26146;51.114;5.654;2023-07-24T11:12:43;5.53;;;1.40;;
40433;SDS011;26146;51.114;5.654;2023-07-24T11:16:50;4.22;;;1.40;;
40433;SDS011;26146;51.114;5.654;2023-07-24T11:20:52;5.15;;;1.40;;
40433;SDS011;26146;51.114;5.654;2023-07-24T11:24:56;4.63;;;1.50;;
40433;SDS011;26146;51.114;5.654;2023-07-24T11:28:57;5.65;;;1.80;;
40433;SDS011;26146;51.114;5.654;2023-07-24T11:33:00;5.38;;;1.90;;
40433;SDS011;26146;51.114;5.654;2023-07-24T11:37:03;6.15;;;2.30;;
40433;SDS011;26146;51.114;5.654;2023-07-24T11:41:05;6.03;;;2.17;;
40433;SDS011;26146;51.114;5.654;2023-07-24T11:45:10;5.75;;;1.98;;
40433;SDS011;26146;51.114;5.654;2023-07-24T11:49:14;5.95;;;2.00;;
40433;SDS011;26146;51.114;5.654;2023-07-24T11:53:18;5.73;;;1.77;;
40433;SDS011;26146;51.114;5.654;2023-07-24T11:57:21;5.55;;;1.70;;
40433;SDS011;26146;51.114;5.654;2023-07-24T12:01:22;5.25;;;1.90;;
40433;SDS011;26146;51.114;5.654;2023-07-24T12:05:23;5.50;;;1.60;;
40433;SDS011;26146;51.114;5.654;2023-07-24T12:09:28;5.50;;;1.70;;
40433;SDS011;26146;51.114;5.654;2023-07-24T12:13:30;5.93;;;1.58;;
40433;SDS011;26146;51.114;5.654;2023-07-24T12:17:32;5.55;;;1.70;;
40433;SDS011;26146;51.114;5.654;2023-07-24T12:21:33;6.50;;;1.65;;
40433;SDS011;26146;51.114;5.654;2023-07-24T12:25:34;4.88;;;1.48;;
40433;SDS011;26146;51.114;5.654;2023-07-24T12:29:35;5.90;;;1.80;;
40433;SDS011;26146;51.114;5.654;2023-07-24T12:33:36;5.53;;;1.70;;
40433;SDS011;26146;51.114;5.654;2023-07-24T12:37:37;4.43;;;1.42;;
40433;SDS011;26146;51.114;5.654;2023-07-24T12:41:40;5.63;;;1.47;;
40433;SDS011;26146;51.114;5.654;2023-07-24T12:45:41;4.93;;;1.30;;
40433;SDS011;26146;51.114;5.654;2023-07-24T12:49:42;6.25;;;1.60;;
40433;SDS011;26146;51.114;5.654;2023-07-24T12:53:43;6.22;;;1.60;;
40433;SDS011;26146;51.114;5.654;2023-07-24T12:57:44;5.88;;;1.52;;
40433;SDS011;26146;51.114;5.654;2023-07-24T13:01:45;6.38;;;1.45;;
40433;SDS011;26146;51.114;5.654;2023-07-24T13:05:47;5.18;;;1.60;;
40433;SDS011;26146;51.114;5.654;2023-07-24T13:09:48;4.65;;;1.30;;
40433;SDS011;26146;51.114;5.654;2023-07-24T13:13:49;6.22;;;1.55;;
40433;SDS011;26146;51.114;5.654;2023-07-24T13:17:52;4.50;;;1.10;;
40433;SDS011;26146;51.114;5.654;2023-07-24T13:21:53;4.05;;;1.17;;
40433;SDS011;26146;51.114;5.654;2023-07-24T13:25:54;5.03;;;1.30;;
40433;SDS011;26146;51.114;5.654;2023-07-24T13:29:55;5.05;;;1.50;;
40433;SDS011;26146;51.114;5.654;2023-07-24T13:33:56;4.32;;;1.35;;
40433;SDS011;26146;51.114;5.654;2023-07-24T13:37:57;6.47;;;1.60;;
40433;SDS011;26146;51.114;5.654;2023-07-24T13:41:58;5.47;;;1.83;;
40433;SDS011;26146;51.114;5.654;2023-07-24T13:45:59;5.80;;;2.08;;
40433;SDS011;26146;51.114;5.654;2023-07-24T13:50:00;7.50;;;2.30;;
40433;SDS011;26146;51.114;5.654;2023-07-24T13:54:03;5.78;;;2.13;;
40433;SDS011;26146;51.114;5.654;2023-07-24T13:58:06;6.53;;;2.10;;
40433;SDS011;26146;51.114;5.654;2023-07-24T14:02:07;6.00;;;2.05;;
40433;SDS011;26146;51.114;5.654;2023-07-24T14:06:08;5.43;;;1.80;;
40433;SDS011;26146;51.114;5.654;2023-07-24T14:10:10;6.55;;;2.05;;
40433;SDS011;26146;51.114;5.654;2023-07-24T14:14:11;6.22;;;2.25;;
40433;SDS011;26146;51.114;5.654;2023-07-24T14:18:12;6.50;;;2.47;;
40433;SDS011;26146;51.114;5.654;2023-07-24T14:22:13;5.85;;;2.40;;
40433;SDS011;26146;51.114;5.654;2023-07-24T14:26:14;5.75;;;2.10;;
40433;SDS011;26146;51.114;5.654;2023-07-24T14:30:15;6.35;;;2.67;;
40433;SDS011;26146;51.114;5.654;2023-07-24T14:34:16;7.75;;;2.72;;
40433;SDS011;26146;51.114;5.654;2023-07-24T14:38:19;7.60;;;2.90;;
40433;SDS011;26146;51.114;5.654;2023-07-24T14:42:20;7.40;;;2.53;;
40433;SDS011;26146;51.114;5.654;2023-07-24T14:46:21;6.93;;;2.50;;
40433;SDS011;26146;51.114;5.654;2023-07-24T14:50:22;6.22;;;2.53;;
40433;SDS011;26146;51.114;5.654;2023-07-24T14:54:23;6.38;;;2.40;;
40433;SDS011;26146;51.114;5.654;2023-07-24T14:58:24;6.43;;;2.38;;
40433;SDS011;26146;51.114;5.654;2023-07-24T15:02:25;7.47;;;2.00;;
40433;SDS011;26146;51.114;5.654;2023-07-24T15:06:26;8.13;;;2.60;;
40433;SDS011;26146;51.114;5.654;2023-07-24T15:10:27;6.13;;;2.20;;
40433;SDS011;26146;51.114;5.654;2023-07-24T15:14:30;5.63;;;1.98;;
40433;SDS011;26146;51.114;5.654;2023-07-24T15:18:31;6.37;;;2.40;;
40433;SDS011;26146;51.114;5.654;2023-07-24T15:22:35;6.70;;;2.03;;
40433;SDS011;26146;51.114;5.654;2023-07-24T15:26:36;6.63;;;2.30;;
40433;SDS011;26146;51.114;5.654;2023-07-24T15:30:37;4.40;;;1.23;;
40433;SDS011;26146;51.114;5.654;2023-07-24T15:34:38;5.75;;;1.50;;
40433;SDS011;26146;51.114;5.654;2023-07-24T15:38:39;8.65;;;2.22;;
40433;SDS011;26146;51.114;5.654;2023-07-24T15:42:40;9.07;;;2.63;;
40433;SDS011;26146;51.114;5.654;2023-07-24T15:46:41;7.60;;;2.40;;
40433;SDS011;26146;51.114;5.654;2023-07-24T15:50:42;7.43;;;2.95;;
40433;SDS011;26146;51.114;5.654;2023-07-24T15:54:43;7.47;;;3.15;;
40433;SDS011;26146;51.114;5.654;2023-07-24T15:58:45;10.38;;;3.58;;
40433;SDS011;26146;51.114;5.654;2023-07-24T16:02:47;8.23;;;3.42;;
40433;SDS011;26146;51.114;5.654;2023-07-24T16:06:48;8.63;;;3.90;;
40433;SDS011;26146;51.114;5.654;2023-07-24T16:10:49;10.05;;;4.10;;
40433;SDS011;26146;51.114;5.654;2023-07-24T16:14:50;10.50;;;4.75;;
40433;SDS011;26146;51.114;5.654;2023-07-24T16:23:20;7.55;;;3.88;;
40433;SDS011;26146;51.114;5.654;2023-07-24T16:27:21;8.43;;;3.90;;
40433;SDS011;26146;51.114;5.654;2023-07-24T16:31:25;8.57;;;3.75;;
40433;SDS011;26146;51.114;5.654;2023-07-24T16:35:27;5.90;;;2.30;;
40433;SDS011;26146;51.114;5.654;2023-07-24T16:39:28;6.85;;;2.28;;
40433;SDS011;26146;51.114;5.654;2023-07-24T16:43:29;6.68;;;2.53;;
40433;SDS011;26146;51.114;5.654;2023-07-24T16:47:30;6.25;;;2.25;;
40433;SDS011;26146;51.114;5.654;2023-07-24T16:51:31;6.90;;;2.60;;
40433;SDS011;26146;51.114;5.654;2023-07-24T16:55:32;6.75;;;2.53;;
40433;SDS011;26146;51.114;5.654;2023-07-24T16:59:33;6.93;;;2.80;;
40433;SDS011;26146;51.114;5.654;2023-07-24T17:03:34;7.03;;;2.83;;
40433;SDS011;26146;51.114;5.654;2023-07-24T17:07:35;8.18;;;3.30;;
40433;SDS011;26146;51.114;5.654;2023-07-24T17:11:37;8.68;;;3.08;;
40433;SDS011;26146;51.114;5.654;2023-07-24T17:15:38;7.22;;;3.10;;
40433;SDS011;26146;51.114;5.654;2023-07-24T17:19:39;8.30;;;3.40;;
40433;SDS011;26146;51.114;5.654;2023-07-24T17:23:42;7.25;;;3.70;;
40433;SDS011;26146;51.114;5.654;2023-07-24T17:27:43;8.35;;;3.63;;
40433;SDS011;26146;51.114;5.654;2023-07-24T17:31:44;7.50;;;3.47;;
40433;SDS011;26146;51.114;5.654;2023-07-24T17:35:45;9.75;;;3.65;;
40433;SDS011;26146;51.114;5.654;2023-07-24T17:39:46;8.20;;;3.65;;
40433;SDS011;26146;51.114;5.654;2023-07-24T17:43:47;8.65;;;3.97;;
40433;SDS011;26146;51.114;5.654;2023-07-24T17:47:48;9.63;;;3.95;;
40433;SDS011;26146;51.114;5.654;2023-07-24T17:51:49;7.05;;;3.72;;
40433;SDS011;26146;51.114;5.654;2023-07-24T17:55:50;8.88;;;4.20;;
40433;SDS011;26146;51.114;5.654;2023-07-24T17:59:51;9.32;;;4.00;;
40433;SDS011;26146;51.114;5.654;2023-07-24T18:03:52;8.10;;;3.75;;
40433;SDS011;26146;51.114;5.654;2023-07-24T18:07:53;11.80;;;4.30;;
40433;SDS011;26146;51.114;5.654;2023-07-24T18:11:54;10.20;;;4.00;;
40433;SDS011;26146;51.114;5.654;2023-07-24T18:15:55;7.35;;;3.65;;
40433;SDS011;26146;51.114;5.654;2023-07-24T18:19:57;9.80;;;4.18;;
40433;SDS011;26146;51.114;5.654;2023-07-24T18:23:58;8.50;;;4.28;;
40433;SDS011;26146;51.114;5.654;2023-07-24T18:28:05;7.90;;;4.13;;
40433;SDS011;26146;51.114;5.654;2023-07-24T18:32:06;8.75;;;4.38;;
40433;SDS011;26146;51.114;5.654;2023-07-24T18:36:07;9.43;;;4.10;;
40433;SDS011;26146;51.114;5.654;2023-07-24T18:40:09;8.73;;;4.47;;
40433;SDS011;26146;51.114;5.654;2023-07-24T18:44:10;10.02;;;4.63;;
40433;SDS011;26146;51.114;5.654;2023-07-24T18:48:11;10.48;;;4.25;;
40433;SDS011;26146;51.114;5.654;2023-07-24T18:52:12;8.27;;;3.90;;
40433;SDS011;26146;51.114;5.654;2023-07-24T18:56:13;9.70;;;3.97;;
40433;SDS011;26146;51.114;5.654;2023-07-24T19:00:15;9.80;;;3.70;;
40433;SDS011;26146;51.114;5.654;2023-07-24T19:04:17;7.85;;;3.55;;
40433;SDS011;26146;51.114;5.654;2023-07-24T19:08:18;8.75;;;3.55;;
40433;SDS011;26146;51.114;5.654;2023-07-24T19:12:20;8.27;;;3.38;;
40433;SDS011;26146;51.114;5.654;2023-07-24T19:16:21;8.25;;;3.38;;
40433;SDS011;26146;51.114;5.654;2023-07-24T19:20:23;7.68;;;3.25;;
40433;SDS011;26146;51.114;5.654;2023-07-24T19:24:24;9.20;;;3.55;;
40433;SDS011;26146;51.114;5.654;2023-07-24T19:28:25;9.20;;;3.50;;
40433;SDS011;26146;51.114;5.654;2023-07-24T19:32:26;7.85;;;3.30;;
40433;SDS011;26146;51.114;5.654;2023-07-24T19:36:27;8.55;;;3.42;;
40433;SDS011;26146;51.114;5.654;2023-07-24T19:40:28;8.07;;;3.53;;
40433;SDS011;26146;51.114;5.654;2023-07-24T19:44:29;9.30;;;3.80;;
40433;SDS011;26146;51.114;5.654;2023-07-24T19:48:30;8.82;;;3.55;;
40433;SDS011;26146;51.114;5.654;2023-07-24T19:52:31;8.70;;;3.15;;
40433;SDS011;26146;51.114;5.654;2023-07-24T19:56:32;7.93;;;2.75;;
40433;SDS011;26146;51.114;5.654;2023-07-24T20:00:33;7.35;;;2.55;;
40433;SDS011;26146;51.114;5.654;2023-07-24T20:04:34;7.20;;;2.50;;
40433;SDS011;26146;51.114;5.654;2023-07-24T20:08:35;7.30;;;2.50;;
40433;SDS011;26146;51.114;5.654;2023-07-24T20:12:37;7.18;;;2.80;;
40433;SDS011;26146;51.114;5.654;2023-07-24T20:16:38;8.25;;;2.92;;
40433;SDS011;26146;51.114;5.654;2023-07-24T20:20:43;5.95;;;2.30;;
40433;SDS011;26146;51.114;5.654;2023-07-24T20:24:46;7.20;;;2.88;;
40433;SDS011;26146;51.114;5.654;2023-07-24T20:28:47;6.20;;;2.70;;
40433;SDS011;26146;51.114;5.654;2023-07-24T20:32:48;7.40;;;2.92;;
40433;SDS011;26146;51.114;5.654;2023-07-24T20:36:49;6.78;;;2.53;;
40433;SDS011;26146;51.114;5.654;2023-07-24T20:40:50;6.65;;;2.78;;
40433;SDS011;26146;51.114;5.654;2023-07-24T20:44:51;8.50;;;3.40;;
40433;SDS011;26146;51.114;5.654;2023-07-24T20:48:53;7.88;;;2.83;;
40433;SDS011;26146;51.114;5.654;2023-07-24T20:52:54;6.82;;;2.63;;
40433;SDS011;26146;51.114;5.654;2023-07-24T20:56:55;6.95;;;2.10;;
40433;SDS011;26146;51.114;5.654;2023-07-24T21:00:56;5.93;;;1.70;;
40433;SDS011;26146;51.114;5.654;2023-07-24T21:04:57;7.55;;;1.90;;
40433;SDS011;26146;51.114;5.654;2023-07-24T21:08:59;6.22;;;1.80;;
40433;SDS011;26146;51.114;5.654;2023-07-24T21:13:00;6.40;;;2.40;;
40433;SDS011;26146;51.114;5.654;2023-07-24T21:17:01;8.70;;;2.17;;
40433;SDS011;26146;51.114;5.654;2023-07-24T21:21:02;5.53;;;2.00;;
40433;SDS011;26146;51.114;5.654;2023-07-24T21:25:03;8.23;;;2.35;;
40433;SDS011;26146;51.114;5.654;2023-07-24T21:29:05;6.65;;;2.00;;
40433;SDS011;26146;51.114;5.654;2023-07-24T21:33:06;6.13;;;2.00;;
40433;SDS011;26146;51.114;5.654;2023-07-24T21:37:07;6.35;;;2.30;;
40433;SDS011;26146;51.114;5.654;2023-07-24T21:41:08;6.80;;;2.20;;
40433;SDS011;26146;51.114;5.654;2023-07-24T21:45:09;7.80;;;2.40;;
40433;SDS011;26146;51.114;5.654;2023-07-24T21:49:10;5.70;;;2.10;;
40433;SDS011;26146;51.114;5.654;2023-07-24T21:53:11;7.50;;;2.30;;
40433;SDS011;26146;51.114;5.654;2023-07-24T21:57:12;6.43;;;2.13;;
40433;SDS011;26146;51.114;5.654;2023-07-24T22:01:13;6.57;;;2.17;;
40433;SDS011;26146;51.114;5.654;2023-07-24T22:05:15;7.22;;;2.38;;
40433;SDS011;26146;51.114;5.654;2023-07-24T22:09:16;8.30;;;2.10;;
40433;SDS011;26146;51.114;5.654;2023-07-24T22:13:17;7.00;;;1.92;;
40433;SDS011;26146;51.114;5.654;2023-07-24T22:17:18;6.05;;;1.92;;
40433;SDS011;26146;51.114;5.654;2023-07-24T22:21:19;6.05;;;1.98;;
40433;SDS011;26146;51.114;5.654;2023-07-24T22:25:20;8.18;;;2.17;;
40433;SDS011;26146;51.114;5.654;2023-07-24T22:29:21;10.00;;;2.30;;
40433;SDS011;26146;51.114;5.654;2023-07-24T22:33:22;7.18;;;2.20;;
40433;SDS011;26146;51.114;5.654;2023-07-24T22:37:23;6.63;;;2.30;;
40433;SDS011;26146;51.114;5.654;2023-07-24T22:41:24;7.07;;;2.30;;
40433;SDS011;26146;51.114;5.654;2023-07-24T22:45:25;7.93;;;2.40;;
40433;SDS011;26146;51.114;5.654;2023-07-24T22:49:26;9.23;;;2.47;;
40433;SDS011;26146;51.114;5.654;2023-07-24T22:53:27;7.75;;;2.28;;
40433;SDS011;26146;51.114;5.654;2023-07-24T22:57:28;9.27;;;2.20;;
40433;SDS011;26146;51.114;5.654;2023-07-24T23:01:30;10.38;;;2.30;;
40433;SDS011;26146;51.114;5.654;2023-07-24T23:05:32;7.25;;;2.45;;
40433;SDS011;26146;51.114;5.654;2023-07-24T23:09:33;7.50;;;2.30;;
40433;SDS011;26146;51.114;5.654;2023-07-24T23:13:34;8.05;;;2.55;;
40433;SDS011;26146;51.114;5.654;2023-07-24T23:17:35;7.90;;;2.33;;
40433;SDS011;26146;51.114;5.654;2023-07-24T23:21:36;10.20;;;2.58;;
40433;SDS011;26146;51.114;5.654;2023-07-24T23:25:37;7.32;;;2.38;;
40433;SDS011;26146;51.114;5.654;2023-07-24T23:29:38;8.82;;;2.70;;
40433;SDS011;26146;51.114;5.654;2023-07-24T23:33:39;7.20;;;2.40;;
40433;SDS011;26146;51.114;5.654;2023-07-24T23:37:40;8.05;;;2.92;;
40433;SDS011;26146;51.114;5.654;2023-07-24T23:41:41;10.95;;;3.03;;
40433;SDS011;26146;51.114;5.654;2023-07-24T23:45:42;7.10;;;2.65;;
40433;SDS011;26146;51.114;5.654;2023-07-24T23:49:43;9.60;;;2.78;;
40433;SDS011;26146;51.114;5.654;2023-07-24T23:53:44;9.07;;;2.97;;
40433;SDS011;26146;51.114;5.654;2023-07-24T23:57:46;9.05;;;3.00;;
